sensor_id;sensor_type;location;lat;lon;timestamp;P1;durP1;ratioP1;P2;durP2;ratioP2
27778;SDS011;30234;48.090;11.464;2023-07-08T00:01:43;9.90;;;5.55;;
27778;SDS011;30234;48.090;11.464;2023-07-08T00:05:44;8.30;;;5.05;;
27778;SDS011;30234;48.090;11.464;2023-07-08T00:09:46;10.48;;;5.22;;
27778;SDS011;30234;48.090;11.464;2023-07-08T00:13:47;14.20;;;6.10;;
27778;SDS011;30234;48.090;11.464;2023-07-08T00:17:48;22.60;;;6.28;;
27778;SDS011;30234;48.090;11.464;2023-07-08T00:21:49;12.15;;;5.57;;
27778;SDS011;30234;48.090;11.464;2023-07-08T00:25:52;9.60;;;6.05;;
27778;SDS011;30234;48.090;11.464;2023-07-08T00:29:53;8.98;;;6.03;;
27778;SDS011;30234;48.090;11.464;2023-07-08T00:33:54;8.95;;;5.57;;
27778;SDS011;30234;48.090;11.464;2023-07-08T00:37:56;9.90;;;5.03;;
27778;SDS011;30234;48.090;11.464;2023-07-08T00:42:01;10.45;;;6.18;;
27778;SDS011;30234;48.090;11.464;2023-07-08T00:47:04;10.50;;;5.38;;
27778;SDS011;30234;48.090;11.464;2023-07-08T00:50:58;9.85;;;6.43;;
27778;SDS011;30234;48.090;11.464;2023-07-08T00:55:01;8.20;;;5.75;;
27778;SDS011;30234;48.090;11.464;2023-07-08T00:59:08;11.40;;;5.57;;
27778;SDS011;30234;48.090;11.464;2023-07-08T01:03:24;13.80;;;5.63;;
27778;SDS011;30234;48.090;11.464;2023-07-08T01:07:27;11.18;;;5.70;;
27778;SDS011;30234;48.090;11.464;2023-07-08T01:11:30;13.02;;;6.68;;
27778;SDS011;30234;48.090;11.464;2023-07-08T01:15:35;10.48;;;5.32;;
27778;SDS011;30234;48.090;11.464;2023-07-08T01:19:42;9.38;;;5.88;;
27778;SDS011;30234;48.090;11.464;2023-07-08T01:23:44;11.23;;;5.70;;
27778;SDS011;30234;48.090;11.464;2023-07-08T01:27:49;10.15;;;5.72;;
27778;SDS011;30234;48.090;11.464;2023-07-08T01:31:55;12.93;;;6.03;;
27778;SDS011;30234;48.090;11.464;2023-07-08T01:35:57;9.65;;;5.25;;
27778;SDS011;30234;48.090;11.464;2023-07-08T01:40:13;7.22;;;5.15;;
27778;SDS011;30234;48.090;11.464;2023-07-08T01:48:36;10.98;;;5.63;;
27778;SDS011;30234;48.090;11.464;2023-07-08T01:52:40;10.05;;;5.85;;
27778;SDS011;30234;48.090;11.464;2023-07-08T01:56:41;10.15;;;6.22;;
27778;SDS011;30234;48.090;11.464;2023-07-08T02:00:42;11.07;;;6.32;;
27778;SDS011;30234;48.090;11.464;2023-07-08T02:04:43;13.38;;;5.95;;
27778;SDS011;30234;48.090;11.464;2023-07-08T02:08:44;7.80;;;5.07;;
27778;SDS011;30234;48.090;11.464;2023-07-08T02:12:45;10.55;;;6.25;;
27778;SDS011;30234;48.090;11.464;2023-07-08T02:16:47;9.20;;;6.05;;
27778;SDS011;30234;48.090;11.464;2023-07-08T02:20:48;8.27;;;5.53;;
27778;SDS011;30234;48.090;11.464;2023-07-08T02:24:49;8.52;;;5.70;;
27778;SDS011;30234;48.090;11.464;2023-07-08T02:28:50;11.85;;;5.47;;
27778;SDS011;30234;48.090;11.464;2023-07-08T02:32:51;8.50;;;5.28;;
27778;SDS011;30234;48.090;11.464;2023-07-08T02:36:58;11.35;;;6.10;;
27778;SDS011;30234;48.090;11.464;2023-07-08T02:40:59;9.50;;;5.82;;
27778;SDS011;30234;48.090;11.464;2023-07-08T02:45:00;11.07;;;5.47;;
27778;SDS011;30234;48.090;11.464;2023-07-08T02:49:01;12.18;;;6.18;;
27778;SDS011;30234;48.090;11.464;2023-07-08T02:53:02;9.32;;;5.78;;
27778;SDS011;30234;48.090;11.464;2023-07-08T02:57:03;11.20;;;6.55;;
27778;SDS011;30234;48.090;11.464;2023-07-08T03:01:04;11.02;;;5.70;;
27778;SDS011;30234;48.090;11.464;2023-07-08T03:05:06;9.35;;;5.75;;
27778;SDS011;30234;48.090;11.464;2023-07-08T03:09:08;11.95;;;6.43;;
27778;SDS011;30234;48.090;11.464;2023-07-08T03:13:09;10.02;;;6.13;;
27778;SDS011;30234;48.090;11.464;2023-07-08T03:17:10;9.57;;;5.65;;
27778;SDS011;30234;48.090;11.464;2023-07-08T03:21:11;12.57;;;5.90;;
27778;SDS011;30234;48.090;11.464;2023-07-08T03:25:15;9.43;;;6.03;;
27778;SDS011;30234;48.090;11.464;2023-07-08T03:29:19;9.07;;;6.22;;
27778;SDS011;30234;48.090;11.464;2023-07-08T03:33:21;10.00;;;5.80;;
27778;SDS011;30234;48.090;11.464;2023-07-08T03:37:22;10.52;;;6.40;;
27778;SDS011;30234;48.090;11.464;2023-07-08T03:41:23;15.73;;;6.60;;
27778;SDS011;30234;48.090;11.464;2023-07-08T03:45:25;12.43;;;6.32;;
27778;SDS011;30234;48.090;11.464;2023-07-08T03:49:26;11.02;;;6.35;;
27778;SDS011;30234;48.090;11.464;2023-07-08T03:53:27;10.75;;;6.10;;
27778;SDS011;30234;48.090;11.464;2023-07-08T03:57:28;10.38;;;6.10;;
27778;SDS011;30234;48.090;11.464;2023-07-08T04:01:29;9.57;;;5.90;;
27778;SDS011;30234;48.090;11.464;2023-07-08T04:05:30;12.88;;;5.78;;
27778;SDS011;30234;48.090;11.464;2023-07-08T04:09:30;13.45;;;6.30;;
27778;SDS011;30234;48.090;11.464;2023-07-08T04:13:32;9.82;;;6.28;;
27778;SDS011;30234;48.090;11.464;2023-07-08T04:17:33;9.45;;;6.30;;
27778;SDS011;30234;48.090;11.464;2023-07-08T04:21:37;9.18;;;5.90;;
27778;SDS011;30234;48.090;11.464;2023-07-08T04:25:38;10.35;;;6.40;;
27778;SDS011;30234;48.090;11.464;2023-07-08T04:29:39;9.43;;;5.78;;
27778;SDS011;30234;48.090;11.464;2023-07-08T04:33:40;12.07;;;6.45;;
27778;SDS011;30234;48.090;11.464;2023-07-08T04:37:41;11.32;;;6.35;;
27778;SDS011;30234;48.090;11.464;2023-07-08T04:41:42;17.48;;;9.23;;
27778;SDS011;30234;48.090;11.464;2023-07-08T04:45:44;13.20;;;7.13;;
27778;SDS011;30234;48.090;11.464;2023-07-08T04:49:50;11.23;;;6.80;;
27778;SDS011;30234;48.090;11.464;2023-07-08T04:53:51;16.58;;;7.30;;
27778;SDS011;30234;48.090;11.464;2023-07-08T04:57:52;12.98;;;6.63;;
27778;SDS011;30234;48.090;11.464;2023-07-08T05:01:53;18.15;;;13.13;;
27778;SDS011;30234;48.090;11.464;2023-07-08T05:05:54;12.90;;;8.15;;
27778;SDS011;30234;48.090;11.464;2023-07-08T05:09:55;11.55;;;6.38;;
27778;SDS011;30234;48.090;11.464;2023-07-08T05:13:56;11.30;;;7.38;;
27778;SDS011;30234;48.090;11.464;2023-07-08T05:17:57;10.18;;;6.63;;
27778;SDS011;30234;48.090;11.464;2023-07-08T05:21:58;10.43;;;5.72;;
27778;SDS011;30234;48.090;11.464;2023-07-08T05:26:00;10.82;;;6.57;;
27778;SDS011;30234;48.090;11.464;2023-07-08T05:30:03;10.35;;;6.50;;
27778;SDS011;30234;48.090;11.464;2023-07-08T05:34:07;12.52;;;6.50;;
27778;SDS011;30234;48.090;11.464;2023-07-08T05:38:07;10.18;;;6.35;;
27778;SDS011;30234;48.090;11.464;2023-07-08T05:42:08;11.65;;;7.50;;
27778;SDS011;30234;48.090;11.464;2023-07-08T05:46:09;9.55;;;6.85;;
27778;SDS011;30234;48.090;11.464;2023-07-08T05:50:10;11.43;;;6.68;;
27778;SDS011;30234;48.090;11.464;2023-07-08T05:54:11;11.82;;;7.80;;
27778;SDS011;30234;48.090;11.464;2023-07-08T05:58:13;12.23;;;6.95;;
27778;SDS011;30234;48.090;11.464;2023-07-08T06:02:15;10.50;;;7.13;;
27778;SDS011;30234;48.090;11.464;2023-07-08T06:06:17;9.88;;;7.00;;
27778;SDS011;30234;48.090;11.464;2023-07-08T06:10:18;11.00;;;7.30;;
27778;SDS011;30234;48.090;11.464;2023-07-08T06:14:19;12.45;;;8.25;;
27778;SDS011;30234;48.090;11.464;2023-07-08T06:18:20;11.95;;;7.85;;
27778;SDS011;30234;48.090;11.464;2023-07-08T06:22:21;13.07;;;6.95;;
27778;SDS011;30234;48.090;11.464;2023-07-08T06:26:22;10.10;;;7.28;;
27778;SDS011;30234;48.090;11.464;2023-07-08T06:30:23;11.02;;;7.43;;
27778;SDS011;30234;48.090;11.464;2023-07-08T06:34:24;10.45;;;7.53;;
27778;SDS011;30234;48.090;11.464;2023-07-08T06:38:25;11.05;;;7.50;;
27778;SDS011;30234;48.090;11.464;2023-07-08T06:42:26;13.45;;;7.22;;
27778;SDS011;30234;48.090;11.464;2023-07-08T06:46:27;13.20;;;7.43;;
27778;SDS011;30234;48.090;11.464;2023-07-08T06:50:29;10.70;;;6.65;;
27778;SDS011;30234;48.090;11.464;2023-07-08T06:54:30;11.55;;;6.90;;
27778;SDS011;30234;48.090;11.464;2023-07-08T06:58:31;10.25;;;7.00;;
27778;SDS011;30234;48.090;11.464;2023-07-08T07:02:32;11.25;;;7.43;;
27778;SDS011;30234;48.090;11.464;2023-07-08T07:06:33;11.10;;;6.90;;
27778;SDS011;30234;48.090;11.464;2023-07-08T07:10:34;12.45;;;7.18;;
27778;SDS011;30234;48.090;11.464;2023-07-08T07:14:35;9.77;;;6.70;;
27778;SDS011;30234;48.090;11.464;2023-07-08T07:18:36;9.20;;;6.88;;
27778;SDS011;30234;48.090;11.464;2023-07-08T07:22:36;10.95;;;7.07;;
27778;SDS011;30234;48.090;11.464;2023-07-08T07:26:37;11.15;;;7.10;;
27778;SDS011;30234;48.090;11.464;2023-07-08T07:30:38;10.77;;;7.35;;
27778;SDS011;30234;48.090;11.464;2023-07-08T07:34:39;8.95;;;6.40;;
27778;SDS011;30234;48.090;11.464;2023-07-08T07:38:40;10.73;;;6.35;;
27778;SDS011;30234;48.090;11.464;2023-07-08T07:42:42;10.18;;;6.53;;
27778;SDS011;30234;48.090;11.464;2023-07-08T07:46:45;8.95;;;6.68;;
27778;SDS011;30234;48.090;11.464;2023-07-08T07:50:47;10.73;;;6.00;;
27778;SDS011;30234;48.090;11.464;2023-07-08T07:54:51;10.65;;;6.93;;
27778;SDS011;30234;48.090;11.464;2023-07-08T07:58:53;10.38;;;7.50;;
27778;SDS011;30234;48.090;11.464;2023-07-08T08:02:54;11.27;;;6.63;;
27778;SDS011;30234;48.090;11.464;2023-07-08T08:06:55;11.40;;;6.80;;
27778;SDS011;30234;48.090;11.464;2023-07-08T08:10:56;11.07;;;7.28;;
27778;SDS011;30234;48.090;11.464;2023-07-08T08:14:57;8.73;;;5.97;;
27778;SDS011;30234;48.090;11.464;2023-07-08T08:18:58;12.93;;;7.72;;
27778;SDS011;30234;48.090;11.464;2023-07-08T08:22:59;8.70;;;6.38;;
27778;SDS011;30234;48.090;11.464;2023-07-08T08:26:59;15.05;;;7.93;;
27778;SDS011;30234;48.090;11.464;2023-07-08T08:31:00;12.50;;;6.63;;
27778;SDS011;30234;48.090;11.464;2023-07-08T08:35:01;10.93;;;6.63;;
27778;SDS011;30234;48.090;11.464;2023-07-08T08:39:03;13.13;;;7.28;;
27778;SDS011;30234;48.090;11.464;2023-07-08T08:43:12;11.00;;;6.50;;
27778;SDS011;30234;48.090;11.464;2023-07-08T08:51:39;15.10;;;7.95;;
27778;SDS011;30234;48.090;11.464;2023-07-08T08:55:40;10.20;;;6.60;;
27778;SDS011;30234;48.090;11.464;2023-07-08T08:59:43;11.68;;;6.82;;
27778;SDS011;30234;48.090;11.464;2023-07-08T09:04:16;15.05;;;6.68;;
27778;SDS011;30234;48.090;11.464;2023-07-08T09:12:36;9.95;;;6.90;;
27778;SDS011;30234;48.090;11.464;2023-07-08T09:16:45;11.60;;;7.47;;
27778;SDS011;30234;48.090;11.464;2023-07-08T09:21:20;9.68;;;6.95;;
27778;SDS011;30234;48.090;11.464;2023-07-08T09:25:39;10.50;;;6.50;;
27778;SDS011;30234;48.090;11.464;2023-07-08T09:29:49;11.88;;;7.07;;
27778;SDS011;30234;48.090;11.464;2023-07-08T09:33:51;12.18;;;7.93;;
27778;SDS011;30234;48.090;11.464;2023-07-08T09:38:17;12.93;;;7.47;;
27778;SDS011;30234;48.090;11.464;2023-07-08T09:42:23;9.82;;;7.30;;
27778;SDS011;30234;48.090;11.464;2023-07-08T09:46:30;9.68;;;6.35;;
27778;SDS011;30234;48.090;11.464;2023-07-08T09:50:37;8.60;;;6.13;;
27778;SDS011;30234;48.090;11.464;2023-07-08T09:54:39;11.18;;;6.20;;
27778;SDS011;30234;48.090;11.464;2023-07-08T09:58:41;11.07;;;6.53;;
27778;SDS011;30234;48.090;11.464;2023-07-08T10:06:56;7.70;;;5.45;;
27778;SDS011;30234;48.090;11.464;2023-07-08T10:11:12;8.32;;;5.13;;
27778;SDS011;30234;48.090;11.464;2023-07-08T10:15:18;8.20;;;5.47;;
27778;SDS011;30234;48.090;11.464;2023-07-08T10:19:43;8.35;;;5.25;;
27778;SDS011;30234;48.090;11.464;2023-07-08T10:37:42;9.57;;;5.18;;
27778;SDS011;30234;48.090;11.464;2023-07-08T10:46:35;7.95;;;5.07;;
27778;SDS011;30234;48.090;11.464;2023-07-08T10:55:47;9.77;;;5.35;;
27778;SDS011;30234;48.090;11.464;2023-07-08T11:00:07;7.63;;;5.15;;
27778;SDS011;30234;48.090;11.464;2023-07-08T11:08:57;8.35;;;4.60;;
27778;SDS011;30234;48.090;11.464;2023-07-08T11:13:04;6.30;;;4.78;;
27778;SDS011;30234;48.090;11.464;2023-07-08T11:17:24;12.15;;;5.25;;
27778;SDS011;30234;48.090;11.464;2023-07-08T11:21:38;8.57;;;4.88;;
27778;SDS011;30234;48.090;11.464;2023-07-08T11:25:44;6.80;;;4.93;;
27778;SDS011;30234;48.090;11.464;2023-07-08T11:29:50;6.80;;;5.32;;
27778;SDS011;30234;48.090;11.464;2023-07-08T11:33:57;7.78;;;5.72;;
27778;SDS011;30234;48.090;11.464;2023-07-08T11:38:01;9.45;;;4.80;;
27778;SDS011;30234;48.090;11.464;2023-07-08T11:42:29;5.90;;;4.95;;
27778;SDS011;30234;48.090;11.464;2023-07-08T11:46:34;6.35;;;5.03;;
27778;SDS011;30234;48.090;11.464;2023-07-08T11:50:40;8.98;;;5.15;;
27778;SDS011;30234;48.090;11.464;2023-07-08T11:54:47;6.72;;;4.97;;
27778;SDS011;30234;48.090;11.464;2023-07-08T11:59:16;8.23;;;5.40;;
27778;SDS011;30234;48.090;11.464;2023-07-08T12:03:20;7.47;;;5.38;;
27778;SDS011;30234;48.090;11.464;2023-07-08T12:07:33;8.00;;;5.90;;
27778;SDS011;30234;48.090;11.464;2023-07-08T12:11:45;11.45;;;5.75;;
27778;SDS011;30234;48.090;11.464;2023-07-08T12:15:47;10.20;;;6.00;;
27778;SDS011;30234;48.090;11.464;2023-07-08T12:19:48;9.07;;;6.07;;
27778;SDS011;30234;48.090;11.464;2023-07-08T12:23:51;6.22;;;5.20;;
27778;SDS011;30234;48.090;11.464;2023-07-08T12:27:52;7.03;;;5.45;;
27778;SDS011;30234;48.090;11.464;2023-07-08T12:31:53;7.75;;;4.82;;
27778;SDS011;30234;48.090;11.464;2023-07-08T12:35:54;9.02;;;5.68;;
27778;SDS011;30234;48.090;11.464;2023-07-08T12:39:56;10.13;;;6.20;;
27778;SDS011;30234;48.090;11.464;2023-07-08T12:44:04;10.38;;;6.18;;
27778;SDS011;30234;48.090;11.464;2023-07-08T12:48:22;8.53;;;5.67;;
27778;SDS011;30234;48.090;11.464;2023-07-08T12:52:23;8.60;;;6.13;;
27778;SDS011;30234;48.090;11.464;2023-07-08T12:56:24;8.30;;;5.70;;
27778;SDS011;30234;48.090;11.464;2023-07-08T13:00:30;8.25;;;5.30;;
27778;SDS011;30234;48.090;11.464;2023-07-08T13:04:37;8.43;;;5.57;;
27778;SDS011;30234;48.090;11.464;2023-07-08T13:08:39;8.25;;;5.70;;
27778;SDS011;30234;48.090;11.464;2023-07-08T13:12:40;8.77;;;4.93;;
27778;SDS011;30234;48.090;11.464;2023-07-08T13:16:41;6.53;;;4.80;;
27778;SDS011;30234;48.090;11.464;2023-07-08T13:20:47;8.65;;;5.10;;
27778;SDS011;30234;48.090;11.464;2023-07-08T13:25:00;5.82;;;4.50;;
27778;SDS011;30234;48.090;11.464;2023-07-08T13:29:16;9.00;;;5.13;;
27778;SDS011;30234;48.090;11.464;2023-07-08T13:33:18;7.45;;;4.55;;
27778;SDS011;30234;48.090;11.464;2023-07-08T13:37:20;5.85;;;4.82;;
27778;SDS011;30234;48.090;11.464;2023-07-08T13:41:24;8.05;;;5.15;;
27778;SDS011;30234;48.090;11.464;2023-07-08T13:45:27;6.38;;;4.72;;
27778;SDS011;30234;48.090;11.464;2023-07-08T13:53:46;6.05;;;4.60;;
27778;SDS011;30234;48.090;11.464;2023-07-08T13:57:59;6.80;;;5.38;;
27778;SDS011;30234;48.090;11.464;2023-07-08T14:02:01;7.55;;;4.80;;
27778;SDS011;30234;48.090;11.464;2023-07-08T14:06:18;8.60;;;5.43;;
27778;SDS011;30234;48.090;11.464;2023-07-08T14:10:25;7.57;;;4.93;;
27778;SDS011;30234;48.090;11.464;2023-07-08T14:14:26;8.05;;;5.15;;
27778;SDS011;30234;48.090;11.464;2023-07-08T14:18:27;6.03;;;4.85;;
27778;SDS011;30234;48.090;11.464;2023-07-08T14:22:29;7.32;;;5.28;;
27778;SDS011;30234;48.090;11.464;2023-07-08T14:26:30;7.97;;;4.45;;
27778;SDS011;30234;48.090;11.464;2023-07-08T14:30:32;8.25;;;4.80;;
27778;SDS011;30234;48.090;11.464;2023-07-08T14:34:35;9.85;;;5.65;;
27778;SDS011;30234;48.090;11.464;2023-07-08T14:38:36;8.93;;;5.03;;
27778;SDS011;30234;48.090;11.464;2023-07-08T14:42:37;10.38;;;5.47;;
27778;SDS011;30234;48.090;11.464;2023-07-08T14:46:38;9.90;;;5.93;;
27778;SDS011;30234;48.090;11.464;2023-07-08T14:50:39;8.05;;;5.93;;
27778;SDS011;30234;48.090;11.464;2023-07-08T14:54:40;10.00;;;5.43;;
27778;SDS011;30234;48.090;11.464;2023-07-08T14:58:43;8.30;;;5.20;;
27778;SDS011;30234;48.090;11.464;2023-07-08T15:02:46;6.18;;;5.03;;
27778;SDS011;30234;48.090;11.464;2023-07-08T15:06:49;7.75;;;4.57;;
27778;SDS011;30234;48.090;11.464;2023-07-08T15:10:52;8.25;;;4.60;;
27778;SDS011;30234;48.090;11.464;2023-07-08T15:14:53;7.88;;;5.07;;
27778;SDS011;30234;48.090;11.464;2023-07-08T15:18:54;9.95;;;5.30;;
27778;SDS011;30234;48.090;11.464;2023-07-08T15:22:55;12.45;;;5.78;;
27778;SDS011;30234;48.090;11.464;2023-07-08T15:26:56;7.70;;;5.32;;
27778;SDS011;30234;48.090;11.464;2023-07-08T15:30:57;11.00;;;5.13;;
27778;SDS011;30234;48.090;11.464;2023-07-08T15:35:00;6.75;;;4.90;;
27778;SDS011;30234;48.090;11.464;2023-07-08T15:39:01;9.68;;;4.88;;
27778;SDS011;30234;48.090;11.464;2023-07-08T15:43:02;10.82;;;5.43;;
27778;SDS011;30234;48.090;11.464;2023-07-08T15:47:07;7.45;;;5.03;;
27778;SDS011;30234;48.090;11.464;2023-07-08T15:51:13;6.68;;;4.55;;
27778;SDS011;30234;48.090;11.464;2023-07-08T15:55:20;8.30;;;5.40;;
27778;SDS011;30234;48.090;11.464;2023-07-08T15:59:31;6.45;;;4.75;;
27778;SDS011;30234;48.090;11.464;2023-07-08T16:03:32;9.98;;;4.80;;
27778;SDS011;30234;48.090;11.464;2023-07-08T16:07:37;8.25;;;4.50;;
27778;SDS011;30234;48.090;11.464;2023-07-08T16:11:37;5.22;;;3.97;;
27778;SDS011;30234;48.090;11.464;2023-07-08T16:15:39;6.13;;;4.47;;
27778;SDS011;30234;48.090;11.464;2023-07-08T16:19:42;9.43;;;5.07;;
27778;SDS011;30234;48.090;11.464;2023-07-08T16:23:43;7.07;;;4.35;;
27778;SDS011;30234;48.090;11.464;2023-07-08T16:27:45;6.93;;;4.60;;
27778;SDS011;30234;48.090;11.464;2023-07-08T16:31:49;8.23;;;4.88;;
27778;SDS011;30234;48.090;11.464;2023-07-08T16:35:50;6.85;;;4.78;;
27778;SDS011;30234;48.090;11.464;2023-07-08T16:39:51;8.30;;;4.50;;
27778;SDS011;30234;48.090;11.464;2023-07-08T16:43:52;5.20;;;4.38;;
27778;SDS011;30234;48.090;11.464;2023-07-08T16:47:53;5.95;;;3.75;;
27778;SDS011;30234;48.090;11.464;2023-07-08T16:51:54;5.15;;;4.55;;
27778;SDS011;30234;48.090;11.464;2023-07-08T16:55:55;7.35;;;4.22;;
27778;SDS011;30234;48.090;11.464;2023-07-08T16:59:56;9.27;;;5.00;;
27778;SDS011;30234;48.090;11.464;2023-07-08T17:03:57;5.43;;;4.25;;
27778;SDS011;30234;48.090;11.464;2023-07-08T17:07:58;5.45;;;4.55;;
27778;SDS011;30234;48.090;11.464;2023-07-08T17:11:59;6.55;;;4.38;;
27778;SDS011;30234;48.090;11.464;2023-07-08T17:16:00;6.00;;;3.88;;
27778;SDS011;30234;48.090;11.464;2023-07-08T17:20:13;11.07;;;4.78;;
27778;SDS011;30234;48.090;11.464;2023-07-08T17:24:21;6.28;;;4.43;;
27778;SDS011;30234;48.090;11.464;2023-07-08T17:28:22;6.43;;;4.07;;
27778;SDS011;30234;48.090;11.464;2023-07-08T17:32:23;8.40;;;4.70;;
27778;SDS011;30234;48.090;11.464;2023-07-08T17:36:28;5.82;;;4.20;;
27778;SDS011;30234;48.090;11.464;2023-07-08T17:40:32;8.52;;;4.22;;
27778;SDS011;30234;48.090;11.464;2023-07-08T17:44:32;9.52;;;4.88;;
27778;SDS011;30234;48.090;11.464;2023-07-08T17:48:33;7.57;;;4.03;;
27778;SDS011;30234;48.090;11.464;2023-07-08T17:52:34;6.43;;;4.65;;
27778;SDS011;30234;48.090;11.464;2023-07-08T17:56:39;7.20;;;4.05;;
27778;SDS011;30234;48.090;11.464;2023-07-08T18:00:43;7.32;;;4.47;;
27778;SDS011;30234;48.090;11.464;2023-07-08T18:04:47;8.40;;;4.63;;
27778;SDS011;30234;48.090;11.464;2023-07-08T18:08:48;9.10;;;4.97;;
27778;SDS011;30234;48.090;11.464;2023-07-08T18:12:50;9.30;;;4.05;;
27778;SDS011;30234;48.090;11.464;2023-07-08T18:16:52;9.27;;;4.45;;
27778;SDS011;30234;48.090;11.464;2023-07-08T18:20:55;9.93;;;4.32;;
27778;SDS011;30234;48.090;11.464;2023-07-08T18:24:57;8.45;;;4.90;;
27778;SDS011;30234;48.090;11.464;2023-07-08T18:28:57;8.13;;;4.85;;
27778;SDS011;30234;48.090;11.464;2023-07-08T18:32:59;6.60;;;4.38;;
27778;SDS011;30234;48.090;11.464;2023-07-08T18:37:00;6.20;;;3.92;;
27778;SDS011;30234;48.090;11.464;2023-07-08T18:41:02;9.85;;;4.80;;
27778;SDS011;30234;48.090;11.464;2023-07-08T18:45:18;6.68;;;4.32;;
27778;SDS011;30234;48.090;11.464;2023-07-08T18:49:21;5.95;;;4.05;;
27778;SDS011;30234;48.090;11.464;2023-07-08T18:53:24;8.07;;;4.00;;
27778;SDS011;30234;48.090;11.464;2023-07-08T18:57:25;7.00;;;4.10;;
27778;SDS011;30234;48.090;11.464;2023-07-08T19:01:26;6.82;;;3.88;;
27778;SDS011;30234;48.090;11.464;2023-07-08T19:05:27;5.55;;;3.95;;
27778;SDS011;30234;48.090;11.464;2023-07-08T19:09:28;5.63;;;3.47;;
27778;SDS011;30234;48.090;11.464;2023-07-08T19:13:33;7.20;;;4.07;;
27778;SDS011;30234;48.090;11.464;2023-07-08T19:17:34;7.38;;;3.72;;
27778;SDS011;30234;48.090;11.464;2023-07-08T19:21:35;6.75;;;4.40;;
27778;SDS011;30234;48.090;11.464;2023-07-08T19:25:36;7.00;;;3.45;;
27778;SDS011;30234;48.090;11.464;2023-07-08T19:29:37;4.32;;;3.50;;
27778;SDS011;30234;48.090;11.464;2023-07-08T19:33:38;8.95;;;3.58;;
27778;SDS011;30234;48.090;11.464;2023-07-08T19:37:39;9.18;;;4.53;;
27778;SDS011;30234;48.090;11.464;2023-07-08T19:41:40;7.47;;;3.80;;
27778;SDS011;30234;48.090;11.464;2023-07-08T19:45:41;11.40;;;3.95;;
27778;SDS011;30234;48.090;11.464;2023-07-08T19:49:42;6.32;;;4.00;;
27778;SDS011;30234;48.090;11.464;2023-07-08T19:53:43;7.85;;;4.97;;
27778;SDS011;30234;48.090;11.464;2023-07-08T19:57:45;6.93;;;3.63;;
27778;SDS011;30234;48.090;11.464;2023-07-08T20:01:51;6.43;;;4.07;;
27778;SDS011;30234;48.090;11.464;2023-07-08T20:05:52;12.73;;;4.30;;
27778;SDS011;30234;48.090;11.464;2023-07-08T20:09:53;8.05;;;4.50;;
27778;SDS011;30234;48.090;11.464;2023-07-08T20:13:54;8.65;;;4.57;;
27778;SDS011;30234;48.090;11.464;2023-07-08T20:17:55;8.85;;;3.90;;
27778;SDS011;30234;48.090;11.464;2023-07-08T20:21:58;8.32;;;4.10;;
27778;SDS011;30234;48.090;11.464;2023-07-08T20:25:59;7.82;;;4.28;;
27778;SDS011;30234;48.090;11.464;2023-07-08T20:30:01;8.05;;;4.25;;
27778;SDS011;30234;48.090;11.464;2023-07-08T20:34:02;7.03;;;3.88;;
27778;SDS011;30234;48.090;11.464;2023-07-08T20:38:02;9.27;;;4.25;;
27778;SDS011;30234;48.090;11.464;2023-07-08T20:42:04;10.30;;;3.72;;
27778;SDS011;30234;48.090;11.464;2023-07-08T20:46:19;6.95;;;4.00;;
27778;SDS011;30234;48.090;11.464;2023-07-08T20:50:28;11.52;;;5.70;;
27778;SDS011;30234;48.090;11.464;2023-07-08T20:54:29;6.95;;;4.32;;
27778;SDS011;30234;48.090;11.464;2023-07-08T20:58:29;9.90;;;4.20;;
27778;SDS011;30234;48.090;11.464;2023-07-08T21:02:30;7.80;;;4.10;;
27778;SDS011;30234;48.090;11.464;2023-07-08T21:06:31;6.80;;;4.35;;
27778;SDS011;30234;48.090;11.464;2023-07-08T21:10:32;6.20;;;3.83;;
27778;SDS011;30234;48.090;11.464;2023-07-08T21:14:33;7.97;;;3.83;;
27778;SDS011;30234;48.090;11.464;2023-07-08T21:18:34;11.57;;;4.15;;
27778;SDS011;30234;48.090;11.464;2023-07-08T21:22:36;7.25;;;3.95;;
27778;SDS011;30234;48.090;11.464;2023-07-08T21:26:37;5.82;;;3.90;;
27778;SDS011;30234;48.090;11.464;2023-07-08T21:30:38;6.25;;;4.47;;
27778;SDS011;30234;48.090;11.464;2023-07-08T21:34:39;10.32;;;4.45;;
27778;SDS011;30234;48.090;11.464;2023-07-08T21:38:40;9.60;;;3.90;;
27778;SDS011;30234;48.090;11.464;2023-07-08T21:42:41;6.00;;;4.25;;
27778;SDS011;30234;48.090;11.464;2023-07-08T21:46:45;10.10;;;4.63;;
27778;SDS011;30234;48.090;11.464;2023-07-08T21:50:50;6.53;;;4.18;;
27778;SDS011;30234;48.090;11.464;2023-07-08T21:54:57;9.30;;;5.00;;
27778;SDS011;30234;48.090;11.464;2023-07-08T21:58:58;5.57;;;4.32;;
27778;SDS011;30234;48.090;11.464;2023-07-08T22:02:59;8.65;;;4.13;;
27778;SDS011;30234;48.090;11.464;2023-07-08T22:07:00;7.70;;;4.28;;
27778;SDS011;30234;48.090;11.464;2023-07-08T22:11:05;9.15;;;4.63;;
27778;SDS011;30234;48.090;11.464;2023-07-08T22:15:21;8.77;;;4.40;;
27778;SDS011;30234;48.090;11.464;2023-07-08T22:19:27;7.53;;;4.10;;
27778;SDS011;30234;48.090;11.464;2023-07-08T22:23:28;6.35;;;3.72;;
27778;SDS011;30234;48.090;11.464;2023-07-08T22:27:30;7.70;;;4.40;;
27778;SDS011;30234;48.090;11.464;2023-07-08T22:31:32;12.50;;;4.30;;
27778;SDS011;30234;48.090;11.464;2023-07-08T22:35:39;7.35;;;4.43;;
27778;SDS011;30234;48.090;11.464;2023-07-08T22:39:40;9.93;;;4.00;;
27778;SDS011;30234;48.090;11.464;2023-07-08T22:43:41;7.10;;;4.18;;
27778;SDS011;30234;48.090;11.464;2023-07-08T22:47:43;10.63;;;4.72;;
27778;SDS011;30234;48.090;11.464;2023-07-08T22:51:44;7.15;;;3.92;;
27778;SDS011;30234;48.090;11.464;2023-07-08T22:55:46;9.73;;;4.60;;
27778;SDS011;30234;48.090;11.464;2023-07-08T22:59:47;7.53;;;4.50;;
27778;SDS011;30234;48.090;11.464;2023-07-08T23:03:48;5.35;;;4.18;;
27778;SDS011;30234;48.090;11.464;2023-07-08T23:07:50;7.93;;;4.20;;
27778;SDS011;30234;48.090;11.464;2023-07-08T23:11:51;6.03;;;4.15;;
27778;SDS011;30234;48.090;11.464;2023-07-08T23:15:51;7.22;;;4.63;;
27778;SDS011;30234;48.090;11.464;2023-07-08T23:19:52;7.43;;;4.13;;
27778;SDS011;30234;48.090;11.464;2023-07-08T23:23:54;8.93;;;4.57;;
27778;SDS011;30234;48.090;11.464;2023-07-08T23:27:55;7.32;;;3.97;;
27778;SDS011;30234;48.090;11.464;2023-07-08T23:31:56;6.95;;;3.95;;
27778;SDS011;30234;48.090;11.464;2023-07-08T23:35:58;7.60;;;4.38;;
27778;SDS011;30234;48.090;11.464;2023-07-08T23:39:59;5.57;;;3.78;;
27778;SDS011;30234;48.090;11.464;2023-07-08T23:44:00;7.30;;;4.35;;
27778;SDS011;30234;48.090;11.464;2023-07-08T23:48:01;6.38;;;3.88;;
27778;SDS011;30234;48.090;11.464;2023-07-08T23:52:03;5.90;;;4.38;;
27778;SDS011;30234;48.090;11.464;2023-07-08T23:56:04;8.23;;;3.95;;
